Time;durP1;ratioP1;P1;durP2;ratioP2;P2;SDS_P1;SDS_P2;PMS_P1;PMS_P2;Temp;Humidity;BMP_temperature;BMP_pressure;BME280_temperature;BME280_humidity;BME280_pressure;Samples;Min_cycle;Max_cycle;Signal;HPM_P1;HPM_P2
2023/10/27 00:02:21;;;;;;;29.27;13.85;;;9.80;99.90;;;;;;5045900;28;20481;-71
2023/10/27 00:04:46;;;;;;;31.50;14.47;;;9.80;99.90;;;;;;5049966;28;20037;-71
2023/10/27 00:07:12;;;;;;;31.80;15.53;;;9.80;99.90;;;;;;5052324;28;20036;-72
2023/10/27 00:09:38;;;;;;;28.67;13.80;;;9.80;99.90;;;;;;5050317;28;20063;-72
2023/10/27 00:12:05;;;;;;;31.83;16.50;;;9.80;99.90;;;;;;5050031;28;20040;-72
2023/10/27 00:14:30;;;;;;;29.52;14.10;;;9.80;99.90;;;;;;5047612;28;20950;-72
2023/10/27 00:16:59;;;;;;;27.87;13.87;;;9.80;99.90;;;;;;5039839;28;20047;-71
2023/10/27 00:19:24;;;;;;;31.42;14.45;;;9.70;99.90;;;;;;5039761;28;20741;-71
2023/10/27 00:21:50;;;;;;;32.57;14.60;;;9.70;99.90;;;;;;5050758;28;20048;-71
2023/10/27 00:24:18;;;;;;;29.47;14.43;;;9.70;99.90;;;;;;5050585;28;20052;-71
2023/10/27 00:26:44;;;;;;;26.85;13.88;;;9.70;99.90;;;;;;5047038;28;20044;-72
2023/10/27 00:29:09;;;;;;;26.35;13.80;;;9.70;99.90;;;;;;5048781;28;20045;-72
2023/10/27 00:31:35;;;;;;;29.50;14.63;;;9.70;99.90;;;;;;5050290;28;20652;-71
2023/10/27 00:34:01;;;;;;;32.13;15.17;;;9.70;99.90;;;;;;5054663;28;20037;-72
2023/10/27 00:36:26;;;;;;;29.03;14.43;;;9.70;99.90;;;;;;5045430;28;20044;-72
2023/10/27 00:38:52;;;;;;;27.77;13.40;;;9.70;99.90;;;;;;5055923;28;20416;-72
2023/10/27 00:41:20;;;;;;;28.87;13.43;;;9.70;99.90;;;;;;5049337;28;20040;-71
2023/10/27 00:43:46;;;;;;;27.05;14.20;;;9.70;99.90;;;;;;5054586;28;20528;-72
2023/10/27 00:46:12;;;;;;;28.37;13.53;;;9.70;99.90;;;;;;5050545;28;20055;-72
2023/10/27 00:48:37;;;;;;;29.98;13.45;;;9.70;99.90;;;;;;5056384;28;20063;-72
2023/10/27 00:51:07;;;;;;;26.53;14.40;;;9.70;99.90;;;;;;5042026;28;20182;-72
2023/10/27 00:53:33;;;;;;;25.70;13.45;;;9.70;99.90;;;;;;5050904;28;20548;-72
2023/10/27 00:56:03;;;;;;;26.15;13.25;;;9.70;99.90;;;;;;5049497;28;20092;-71
2023/10/27 00:58:35;;;;;;;28.55;13.80;;;9.70;99.90;;;;;;5047778;28;20040;-72
2023/10/27 01:01:02;;;;;;;26.23;13.07;;;9.70;99.90;;;;;;5045355;28;20048;-71
2023/10/27 01:03:32;;;;;;;29.77;12.52;;;9.70;99.90;;;;;;5047600;28;20045;-71
2023/10/27 01:06:00;;;;;;;24.48;12.35;;;9.70;99.90;;;;;;5049875;28;20051;-71
2023/10/27 01:08:28;;;;;;;28.52;12.80;;;9.70;99.90;;;;;;5047668;28;20068;-71
2023/10/27 01:10:55;;;;;;;21.98;12.23;;;9.80;99.90;;;;;;5040782;28;20044;-71
2023/10/27 01:13:20;;;;;;;26.45;11.43;;;9.80;99.90;;;;;;5044690;28;20859;-71
2023/10/27 01:15:46;;;;;;;23.80;12.02;;;9.80;99.90;;;;;;5049933;28;20348;-71
2023/10/27 01:18:12;;;;;;;27.13;12.10;;;9.80;99.90;;;;;;5041129;28;20033;-71
2023/10/27 01:20:37;;;;;;;24.70;12.10;;;9.80;99.90;;;;;;5055538;28;20132;-71
2023/10/27 01:23:04;;;;;;;24.47;11.63;;;9.80;99.90;;;;;;5054055;28;20044;-72
2023/10/27 01:25:29;;;;;;;;;;;9.80;99.90;;;;;;5056358;28;20051;-71
2023/10/27 01:27:57;;;;;;;23.33;11.48;;;9.80;99.90;;;;;;5055069;28;20304;-71
2023/10/27 01:30:23;;;;;;;21.95;11.45;;;9.80;99.90;;;;;;5059291;28;20049;-71
2023/10/27 01:32:49;;;;;;;21.38;11.27;;;9.80;99.90;;;;;;5055735;28;20105;-71
2023/10/27 01:35:15;;;;;;;25.17;11.63;;;9.80;99.90;;;;;;5059570;28;20057;-71
2023/10/27 01:37:41;;;;;;;20.58;9.57;;;9.80;99.90;;;;;;5061072;28;20048;-72
2023/10/27 01:40:07;;;;;;;23.77;11.50;;;9.80;99.90;;;;;;5064989;28;20036;-71
2023/10/27 01:42:34;;;;;;;20.48;10.73;;;9.70;99.90;;;;;;5048642;28;20080;-71
2023/10/27 01:45:03;;;;;;;23.20;10.70;;;9.70;99.90;;;;;;5057920;28;20072;-71
2023/10/27 01:47:31;;;;;;;20.95;9.68;;;9.70;99.90;;;;;;5059885;28;20059;-71
2023/10/27 01:49:57;;;;;;;21.48;10.25;;;9.70;99.90;;;;;;5046323;28;20037;-71
2023/10/27 01:52:25;;;;;;;22.67;10.95;;;9.70;99.90;;;;;;5054107;28;20040;-71
2023/10/27 01:54:53;;;;;;;23.20;11.43;;;9.70;99.90;;;;;;5053648;28;20052;-71
2023/10/27 01:57:20;;;;;;;20.27;10.57;;;9.70;99.90;;;;;;5054012;28;20311;-71
2023/10/27 01:59:48;;;;;;;19.95;10.15;;;9.70;99.90;;;;;;5053865;28;20040;-71
2023/10/27 02:02:16;;;;;;;17.70;9.93;;;9.70;99.90;;;;;;5051451;28;20041;-71
2023/10/27 02:04:42;;;;;;;21.75;9.88;;;9.70;99.90;;;;;;5056017;28;20047;-71
2023/10/27 02:07:08;;;;;;;17.13;9.15;;;9.70;99.90;;;;;;5052036;28;20560;-71
2023/10/27 02:09:33;;;;;;;18.20;9.87;;;9.70;99.90;;;;;;5050572;28;20043;-71
2023/10/27 02:11:59;;;;;;;20.20;9.33;;;9.70;99.90;;;;;;5047153;28;20328;-71
2023/10/27 02:14:28;;;;;;;20.33;10.47;;;9.70;99.90;;;;;;5055405;28;20493;-71
2023/10/27 02:16:53;;;;;;;19.58;9.52;;;9.70;99.90;;;;;;5051239;28;20411;-71
2023/10/27 02:19:19;;;;;;;17.13;9.57;;;9.70;99.90;;;;;;5055617;28;20066;-71
2023/10/27 02:21:48;;;;;;;19.38;9.35;;;9.70;99.90;;;;;;5058931;28;20032;-71
2023/10/27 02:24:14;;;;;;;17.77;8.95;;;9.70;99.90;;;;;;5056179;28;20048;-71
2023/10/27 02:26:39;;;;;;;17.43;8.50;;;9.70;99.90;;;;;;5047565;28;20052;-71
2023/10/27 02:29:05;;;;;;;21.40;9.00;;;9.70;99.90;;;;;;5056562;28;20336;-71
2023/10/27 02:31:37;;;;;;;19.58;10.02;;;9.70;99.90;;;;;;5048672;28;20071;-74
2023/10/27 02:34:03;;;;;;;17.58;8.48;;;9.70;99.90;;;;;;5059033;28;20124;-71
2023/10/27 02:36:30;;;;;;;19.53;9.10;;;9.70;99.90;;;;;;5051450;28;20182;-71
2023/10/27 02:38:56;;;;;;;18.17;9.05;;;9.70;99.90;;;;;;5052078;28;20074;-71
2023/10/27 02:41:22;;;;;;;14.70;7.37;;;9.70;99.90;;;;;;5055685;28;20606;-71
2023/10/27 02:43:50;;;;;;;17.10;8.85;;;9.70;99.90;;;;;;5051423;28;20277;-71
2023/10/27 02:46:18;;;;;;;17.03;9.17;;;9.70;99.90;;;;;;5045752;28;20440;-71
2023/10/27 02:48:44;;;;;;;16.88;8.40;;;9.70;99.90;;;;;;5056247;28;20075;-71
2023/10/27 02:51:11;;;;;;;15.10;8.07;;;9.70;99.90;;;;;;5057246;28;20068;-71
2023/10/27 02:53:37;;;;;;;18.17;8.35;;;9.70;99.90;;;;;;5050488;28;20384;-71
2023/10/27 02:56:09;;;;;;;15.43;7.83;;;9.70;99.90;;;;;;5055399;28;20124;-71
2023/10/27 02:58:38;;;;;;;16.15;8.57;;;9.70;99.90;;;;;;5047015;28;20040;-71
2023/10/27 03:01:14;;;;;;;13.13;7.60;;;9.70;99.90;;;;;;5044791;28;20029;-71
2023/10/27 03:03:41;;;;;;;15.73;7.63;;;9.70;99.90;;;;;;5051723;28;20076;-71
2023/10/27 03:06:07;;;;;;;16.77;8.05;;;9.70;99.90;;;;;;5056020;28;20552;-71
2023/10/27 03:08:33;;;;;;;15.70;8.02;;;9.70;99.90;;;;;;5050026;28;20127;-71
2023/10/27 03:10:59;;;;;;;14.60;7.70;;;9.70;99.90;;;;;;5051330;28;20040;-71
2023/10/27 03:13:27;;;;;;;13.73;6.65;;;9.70;99.90;;;;;;5048588;28;20484;-71
2023/10/27 03:15:54;;;;;;;18.42;8.68;;;9.70;99.90;;;;;;5031787;28;20424;-71
2023/10/27 03:18:20;;;;;;;18.42;8.60;;;9.70;99.90;;;;;;5045063;28;20378;-71
2023/10/27 03:20:45;;;;;;;18.37;7.77;;;9.70;99.90;;;;;;5054827;28;20098;-71
2023/10/27 03:23:11;;;;;;;17.50;8.17;;;9.70;99.90;;;;;;5048527;28;20037;-71
2023/10/27 03:25:37;;;;;;;16.77;8.10;;;9.70;99.90;;;;;;5051387;28;20477;-71
2023/10/27 03:28:02;;;;;;;17.03;8.13;;;9.70;99.90;;;;;;5046951;28;20043;-71
2023/10/27 03:30:28;;;;;;;13.33;7.83;;;9.70;99.90;;;;;;5055535;28;20589;-71
2023/10/27 03:32:56;;;;;;;14.73;7.83;;;9.70;99.90;;;;;;5052060;28;20037;-71
2023/10/27 03:35:22;;;;;;;16.90;8.32;;;9.70;99.90;;;;;;5050289;28;20144;-71
2023/10/27 03:37:47;;;;;;;16.50;7.77;;;9.70;99.90;;;;;;5055024;28;20123;-71
2023/10/27 03:40:13;;;;;;;13.70;7.30;;;9.70;99.90;;;;;;5056028;28;20036;-71
2023/10/27 03:42:39;;;;;;;13.37;6.90;;;9.70;99.90;;;;;;5048518;28;20076;-71
2023/10/27 03:45:05;;;;;;;15.90;7.20;;;9.80;99.90;;;;;;5049842;28;20040;-71
2023/10/27 03:47:30;;;;;;;13.60;7.07;;;9.80;99.90;;;;;;5053642;28;20041;-71
2023/10/27 03:49:58;;;;;;;15.60;7.23;;;9.80;99.90;;;;;;5053086;28;20045;-71
2023/10/27 03:52:23;;;;;;;15.77;6.90;;;9.80;99.90;;;;;;5030186;28;20429;-71
2023/10/27 03:54:49;;;;;;;13.60;7.70;;;9.80;99.90;;;;;;5046852;28;22421;-71
2023/10/27 03:57:14;;;;;;;16.67;7.70;;;9.80;99.90;;;;;;5055592;28;20040;-71
2023/10/27 03:59:40;;;;;;;14.07;7.50;;;9.80;99.90;;;;;;5049807;28;20044;-71
2023/10/27 04:02:06;;;;;;;15.15;7.80;;;9.80;99.90;;;;;;5049938;28;20052;-71
2023/10/27 04:04:32;;;;;;;16.10;7.77;;;9.80;99.90;;;;;;5054498;28;20517;-72
2023/10/27 04:06:59;;;;;;;14.68;7.35;;;9.80;99.90;;;;;;5047228;28;20040;-71
2023/10/27 04:09:25;;;;;;;17.15;7.47;;;9.80;99.90;;;;;;5050286;28;20051;-71
2023/10/27 04:11:50;;;;;;;15.63;7.40;;;9.80;99.90;;;;;;5046690;28;20052;-71
2023/10/27 04:14:17;;;;;;;16.10;7.93;;;9.80;99.90;;;;;;5052499;28;20033;-71
2023/10/27 04:16:42;;;;;;;14.02;7.15;;;9.80;99.90;;;;;;5049081;28;20037;-71
2023/10/27 04:19:08;;;;;;;15.00;7.73;;;9.80;99.90;;;;;;5057715;28;20052;-71
2023/10/27 04:21:34;;;;;;;14.97;7.77;;;9.80;99.90;;;;;;5050988;28;20068;-71
2023/10/27 04:23:59;;;;;;;15.50;7.90;;;9.80;99.90;;;;;;5053490;28;20064;-71
2023/10/27 04:26:25;;;;;;;18.33;7.33;;;9.80;99.90;;;;;;5050378;28;20048;-71
2023/10/27 04:28:52;;;;;;;16.42;7.68;;;9.90;99.90;;;;;;5053970;28;20437;-71
2023/10/27 04:31:17;;;;;;;;;;;9.80;99.90;;;;;;5047450;28;20122;-71
2023/10/27 04:33:48;;;;;;;11.95;5.90;;;9.80;99.90;;;;;;5052277;28;19928;-71
2023/10/27 04:36:14;;;;;;;16.45;7.40;;;9.70;99.90;;;;;;5044574;28;20119;-71
2023/10/27 04:38:42;;;;;;;14.60;6.60;;;9.70;99.90;;;;;;5052585;28;20045;-71
2023/10/27 04:41:08;;;;;;;12.10;6.20;;;9.70;99.90;;;;;;5052523;28;20049;-72
2023/10/27 04:43:37;;;;;;;13.75;6.78;;;9.70;99.90;;;;;;5050511;28;20036;-71
2023/10/27 04:46:02;;;;;;;13.80;7.07;;;9.70;99.90;;;;;;5048625;28;20079;-71
2023/10/27 04:48:28;;;;;;;14.55;6.88;;;9.70;99.90;;;;;;5051200;28;20135;-71
2023/10/27 04:51:03;;;;;;;15.20;7.20;;;9.70;99.90;;;;;;5049154;28;20397;-71
2023/10/27 04:53:29;;;;;;;16.02;7.38;;;9.70;99.90;;;;;;5051799;28;20068;-71
2023/10/27 04:55:55;;;;;;;16.80;7.25;;;9.60;99.90;;;;;;5047293;28;20116;-71
2023/10/27 04:58:24;;;;;;;14.47;7.67;;;9.60;99.90;;;;;;5048079;28;20049;-71
2023/10/27 05:00:50;;;;;;;13.38;6.30;;;9.60;99.90;;;;;;5050126;28;21612;-71
2023/10/27 05:03:17;;;;;;;12.18;6.57;;;9.60;99.90;;;;;;5060546;28;20360;-71
2023/10/27 05:05:43;;;;;;;15.35;6.90;;;9.60;99.90;;;;;;5052942;28;20045;-71
2023/10/27 05:08:08;;;;;;;15.90;6.90;;;9.60;99.90;;;;;;5049868;28;20118;-71
2023/10/27 05:10:34;;;;;;;13.77;6.93;;;9.60;99.90;;;;;;5056207;28;20496;-71
2023/10/27 05:13:03;;;;;;;16.17;6.33;;;9.60;99.90;;;;;;5064229;28;20484;-71
2023/10/27 05:15:29;;;;;;;13.93;6.07;;;9.50;99.90;;;;;;5050997;28;20045;-71
2023/10/27 05:17:54;;;;;;;14.93;6.70;;;9.50;99.90;;;;;;5058474;28;20514;-71
2023/10/27 05:20:20;;;;;;;15.70;7.77;;;9.50;99.90;;;;;;5047175;28;20421;-71
2023/10/27 05:22:46;;;;;;;13.75;6.63;;;9.60;99.90;;;;;;5056708;28;20038;-71
2023/10/27 05:25:11;;;;;;;12.90;6.17;;;9.60;99.90;;;;;;5055013;28;20045;-71
2023/10/27 05:27:40;;;;;;;14.83;6.37;;;9.60;99.90;;;;;;5050542;28;20139;-71
2023/10/27 05:30:09;;;;;;;11.07;5.82;;;9.60;99.90;;;;;;5054641;28;20080;-71
2023/10/27 05:32:35;;;;;;;14.60;6.50;;;9.60;99.90;;;;;;5049438;28;20037;-71
2023/10/27 05:35:01;;;;;;;11.53;6.20;;;9.60;99.90;;;;;;5056548;28;20040;-71
2023/10/27 05:37:26;;;;;;;11.60;5.70;;;9.60;99.90;;;;;;5045089;28;20056;-71
2023/10/27 05:39:52;;;;;;;13.70;6.45;;;9.60;99.90;;;;;;5055918;28;20404;-71
2023/10/27 05:42:18;;;;;;;16.73;6.70;;;9.60;99.90;;;;;;5052204;28;20040;-71
2023/10/27 05:44:46;;;;;;;16.10;6.87;;;9.60;99.90;;;;;;5051029;28;20041;-71
2023/10/27 05:47:11;;;;;;;13.32;6.28;;;9.60;99.90;;;;;;5056340;28;20127;-71
2023/10/27 05:49:37;;;;;;;12.63;6.40;;;9.60;99.90;;;;;;5052415;28;20456;-72
2023/10/27 05:52:03;;;;;;;15.50;6.60;;;9.60;99.90;;;;;;5051705;28;20533;-72
2023/10/27 05:54:30;;;;;;;10.90;5.82;;;9.60;99.90;;;;;;5048762;28;20275;-71
2023/10/27 05:56:55;;;;;;;;;;;9.60;99.90;;;;;;5050686;28;20045;-72
2023/10/27 05:59:21;;;;;;;13.30;6.10;;;9.60;99.90;;;;;;5057736;28;19923;-72
2023/10/27 06:01:48;;;;;;;17.20;6.37;;;9.60;99.90;;;;;;5034002;28;20456;-71
2023/10/27 06:04:15;;;;;;;12.65;6.05;;;9.60;99.90;;;;;;5030709;28;20060;-71
2023/10/27 06:06:43;;;;;;;13.02;5.95;;;9.60;99.90;;;;;;5046535;28;20080;-71
2023/10/27 06:09:11;;;;;;;14.37;7.50;;;9.50;99.90;;;;;;5050917;28;20485;-71
2023/10/27 06:11:37;;;;;;;15.63;6.82;;;9.60;99.90;;;;;;5047292;28;20090;-71
2023/10/27 06:14:03;;;;;;;14.27;7.27;;;9.60;99.90;;;;;;5042855;28;20131;-71
2023/10/27 06:16:30;;;;;;;13.02;6.63;;;9.60;99.90;;;;;;5051200;28;20045;-71
2023/10/27 06:18:55;;;;;;;13.27;6.88;;;9.60;99.90;;;;;;5036065;28;20067;-71
2023/10/27 06:21:27;;;;;;;15.70;7.15;;;9.50;99.90;;;;;;5055324;28;20041;-71
2023/10/27 06:23:55;;;;;;;15.80;7.30;;;9.60;99.90;;;;;;5046989;28;20047;-71
2023/10/27 06:26:22;;;;;;;13.65;7.03;;;9.50;99.90;;;;;;5056957;28;20113;-71
2023/10/27 06:28:48;;;;;;;12.77;7.10;;;9.50;99.90;;;;;;5052098;28;20045;-71
2023/10/27 06:31:14;;;;;;;15.80;6.70;;;9.50;99.90;;;;;;5050063;28;20061;-71
2023/10/27 06:33:42;;;;;;;14.40;6.33;;;9.50;99.90;;;;;;5048752;28;20329;-72
2023/10/27 06:36:08;;;;;;;15.55;6.70;;;9.50;99.90;;;;;;5054183;28;20041;-71
2023/10/27 06:38:41;;;;;;;15.10;6.90;;;9.50;99.90;;;;;;5054719;28;20044;-72
2023/10/27 06:41:07;;;;;;;12.15;6.45;;;9.50;99.90;;;;;;5049769;28;20044;-71
2023/10/27 06:43:32;;;;;;;11.47;5.97;;;9.50;99.90;;;;;;5047045;28;20044;-72
2023/10/27 06:45:58;;;;;;;10.90;5.93;;;9.50;99.90;;;;;;5056782;28;20043;-71
2023/10/27 06:48:24;;;;;;;13.30;7.00;;;9.50;99.90;;;;;;5055960;28;20322;-72
2023/10/27 06:50:49;;;;;;;11.03;5.93;;;9.50;99.90;;;;;;5047763;28;20048;-72
2023/10/27 06:53:15;;;;;;;11.73;6.23;;;9.60;99.90;;;;;;5058209;28;20079;-71
2023/10/27 06:55:44;;;;;;;15.55;6.82;;;9.60;99.90;;;;;;5052496;28;20128;-71
2023/10/27 06:58:10;;;;;;;13.00;6.50;;;9.60;99.90;;;;;;5046037;28;20052;-71
2023/10/27 07:00:36;;;;;;;12.27;6.23;;;9.60;99.90;;;;;;5045492;28;20055;-71
2023/10/27 07:03:01;;;;;;;12.73;6.72;;;9.60;99.90;;;;;;5053619;28;20048;-72
2023/10/27 07:05:27;;;;;;;14.03;7.00;;;9.70;99.90;;;;;;5051705;28;20049;-71
2023/10/27 07:07:53;;;;;;;12.23;6.23;;;9.70;99.90;;;;;;5057906;28;20043;-71
2023/10/27 07:10:19;;;;;;;12.90;6.47;;;9.70;99.90;;;;;;5049460;28;20049;-71
2023/10/27 07:12:44;;;;;;;11.67;6.70;;;9.70;99.90;;;;;;5053716;28;20522;-71
2023/10/27 07:15:12;;;;;;;14.20;7.87;;;9.70;99.90;;;;;;5050738;28;20036;-71
2023/10/27 07:17:38;;;;;;;13.52;7.07;;;9.70;99.90;;;;;;5050036;28;20324;-72
2023/10/27 07:20:04;;;;;;;15.30;6.90;;;9.70;99.90;;;;;;5050705;28;20632;-71
2023/10/27 07:22:30;;;;;;;12.43;6.47;;;9.70;99.90;;;;;;5047463;28;20053;-72
2023/10/27 07:24:55;;;;;;;12.67;6.73;;;9.70;99.90;;;;;;5052304;28;20048;-72
2023/10/27 07:27:21;;;;;;;13.10;6.93;;;9.80;99.90;;;;;;5053441;28;20047;-71
2023/10/27 07:29:47;;;;;;;14.45;7.15;;;9.80;99.90;;;;;;5047788;28;20095;-71
2023/10/27 07:32:13;;;;;;;11.95;6.90;;;9.80;99.90;;;;;;5050730;28;20312;-71
2023/10/27 07:34:39;;;;;;;13.63;6.95;;;9.90;99.90;;;;;;5051542;28;20045;-71
2023/10/27 07:37:04;;;;;;;11.40;6.53;;;9.90;99.90;;;;;;5049818;28;20037;-71
2023/10/27 07:39:30;;;;;;;12.57;6.40;;;9.90;99.90;;;;;;5048341;28;20094;-71
2023/10/27 07:41:56;;;;;;;11.30;6.18;;;9.90;99.90;;;;;;5056673;28;20064;-71
2023/10/27 07:44:22;;;;;;;12.30;5.97;;;10.00;99.90;;;;;;5042594;28;20048;-71
2023/10/27 07:46:47;;;;;;;12.43;5.93;;;10.00;99.90;;;;;;5046864;28;20049;-71
2023/10/27 07:49:13;;;;;;;13.00;6.27;;;10.00;99.90;;;;;;5054319;28;20469;-71
2023/10/27 07:51:39;;;;;;;12.00;6.63;;;10.00;99.90;;;;;;5055448;28;20079;-71
2023/10/27 07:54:04;;;;;;;11.87;6.20;;;10.00;99.90;;;;;;5055783;28;20041;-72
2023/10/27 07:56:32;;;;;;;10.70;6.20;;;10.00;99.90;;;;;;5054873;28;20040;-72
2023/10/27 07:58:58;;;;;;;11.45;5.90;;;10.10;99.90;;;;;;5041977;28;20524;-71
2023/10/27 08:01:24;;;;;;;10.73;5.40;;;10.10;99.90;;;;;;5049085;28;20045;-72
2023/10/27 08:03:50;;;;;;;12.83;6.23;;;10.10;99.90;;;;;;5053607;28;20581;-71
2023/10/27 08:06:16;;;;;;;10.67;6.00;;;10.10;99.90;;;;;;5050220;28;20886;-72
2023/10/27 08:08:42;;;;;;;11.88;5.90;;;10.10;99.90;;;;;;5045552;28;20278;-72
2023/10/27 08:11:13;;;;;;;11.90;6.27;;;10.20;99.90;;;;;;5050938;28;20115;-72
2023/10/27 08:13:39;;;;;;;12.48;6.68;;;10.20;99.90;;;;;;5047305;28;20385;-71
2023/10/27 08:16:05;;;;;;;14.20;7.17;;;10.20;99.90;;;;;;5051632;28;20448;-72
2023/10/27 08:18:31;;;;;;;13.80;6.70;;;10.10;99.90;;;;;;5045580;28;20290;-72
2023/10/27 08:20:57;;;;;;;13.47;7.00;;;10.20;99.90;;;;;;5060603;28;20051;-71
2023/10/27 08:23:23;;;;;;;10.30;5.90;;;10.20;99.90;;;;;;5055006;28;20412;-71
2023/10/27 08:25:52;;;;;;;11.13;5.80;;;10.20;99.90;;;;;;5052616;28;20111;-71
2023/10/27 08:28:21;;;;;;;11.43;6.28;;;10.20;99.90;;;;;;5057974;28;20086;-71
2023/10/27 08:30:51;;;;;;;12.80;6.43;;;10.30;99.90;;;;;;5048427;28;20048;-71
2023/10/27 08:33:16;;;;;;;12.50;6.97;;;10.20;99.90;;;;;;5046485;28;20037;-71
2023/10/27 08:35:42;;;;;;;13.65;7.18;;;10.20;99.90;;;;;;5054159;28;20047;-71
2023/10/27 08:38:08;;;;;;;13.43;6.68;;;10.20;99.90;;;;;;5044532;28;20072;-71
2023/10/27 08:40:34;;;;;;;13.32;7.15;;;10.20;99.90;;;;;;5057380;28;20044;-71
2023/10/27 08:43:05;;;;;;;12.02;6.47;;;10.30;99.90;;;;;;5051841;28;20046;-71
2023/10/27 08:45:35;;;;;;;13.93;6.65;;;10.30;99.90;;;;;;5050821;28;20493;-71
2023/10/27 08:48:01;;;;;;;11.15;6.40;;;10.30;99.90;;;;;;5058812;28;20076;-71
2023/10/27 08:50:29;;;;;;;14.90;7.15;;;10.30;99.90;;;;;;5056193;28;20079;-71
2023/10/27 08:52:55;;;;;;;12.55;6.60;;;10.30;99.90;;;;;;5052211;28;20040;-74
2023/10/27 08:55:21;;;;;;;14.35;7.30;;;10.30;99.90;;;;;;5054687;28;20404;-74
2023/10/27 08:57:47;;;;;;;12.45;6.82;;;10.40;99.90;;;;;;5059271;28;20048;-72
2023/10/27 09:00:13;;;;;;;13.75;6.88;;;10.40;99.90;;;;;;5053389;28;20041;-71
2023/10/27 09:02:38;;;;;;;12.18;5.97;;;10.40;99.90;;;;;;5051746;28;20063;-71
2023/10/27 09:05:09;;;;;;;12.93;6.93;;;10.40;99.90;;;;;;5057730;28;20044;-72
2023/10/27 09:07:38;;;;;;;14.68;7.05;;;10.50;99.90;;;;;;5049193;28;20566;-71
2023/10/27 09:10:07;;;;;;;12.45;7.10;;;10.50;99.90;;;;;;5047382;28;20047;-72
2023/10/27 09:12:36;;;;;;;11.70;6.88;;;10.60;99.90;;;;;;5053168;28;20052;-72
2023/10/27 09:15:07;;;;;;;13.57;6.43;;;10.60;99.90;;;;;;5051103;28;20084;-72
2023/10/27 09:17:58;;;;;;;10.40;5.78;;;10.60;99.90;;;;;;5056111;28;20390;-71
2023/10/27 09:20:25;;;;;;;12.80;6.63;;;10.60;99.90;;;;;;5052509;28;20130;-71
2023/10/27 09:23:00;;;;;;;11.98;6.35;;;10.70;99.90;;;;;;5054901;28;20517;-71
2023/10/27 09:25:31;;;;;;;11.10;5.57;;;10.70;99.90;;;;;;5055650;28;20153;-71
2023/10/27 09:27:58;;;;;;;10.10;5.68;;;10.70;99.90;;;;;;5047725;28;20169;-71
2023/10/27 09:30:33;;;;;;;11.45;5.90;;;10.80;99.90;;;;;;5058538;28;20045;-72
2023/10/27 09:33:23;;;;;;;10.75;5.68;;;10.80;99.90;;;;;;5054002;28;20083;-72
2023/10/27 09:35:53;;;;;;;10.93;5.90;;;10.80;99.90;;;;;;5049056;28;20097;-72
2023/10/27 09:38:23;;;;;;;12.52;6.75;;;10.80;99.90;;;;;;5049225;28;20540;-72
2023/10/27 09:40:49;;;;;;;12.38;6.68;;;10.90;99.90;;;;;;5049482;28;20052;-76
2023/10/27 09:43:23;;;;;;;12.65;6.25;;;10.90;99.90;;;;;;5050869;28;20140;-74
2023/10/27 09:45:57;;;;;;;11.10;5.80;;;10.90;99.90;;;;;;5047548;28;20058;-74
2023/10/27 09:48:26;;;;;;;12.75;6.95;;;10.90;99.90;;;;;;5031639;28;20049;-74
2023/10/27 09:51:10;;;;;;;11.38;5.95;;;10.90;99.90;;;;;;5050505;28;20049;-73
2023/10/27 09:53:37;;;;;;;9.75;5.68;;;10.90;99.90;;;;;;5050552;28;20046;-75
2023/10/27 09:56:03;;;;;;;;;;;10.90;99.90;;;;;;5053530;28;20043;-74
2023/10/27 09:58:34;;;;;;;11.60;6.70;;;10.90;99.90;;;;;;5051332;28;20007;-72
2023/10/27 10:01:04;;;;;;;12.65;5.90;;;10.90;99.90;;;;;;5052691;28;20036;-73
2023/10/27 10:03:31;;;;;;;11.05;6.43;;;10.90;99.90;;;;;;5055030;28;20072;-72
2023/10/27 10:06:12;;;;;;;10.32;5.50;;;10.90;99.90;;;;;;5050957;28;20412;-71
2023/10/27 10:08:38;;;;;;;12.10;6.80;;;11.00;99.90;;;;;;5046177;28;20041;-71
2023/10/27 10:11:14;;;;;;;12.00;6.25;;;10.90;99.90;;;;;;5048793;28;20516;-71
2023/10/27 10:13:39;;;;;;;11.07;6.00;;;10.90;99.90;;;;;;5053780;28;20048;-71
2023/10/27 10:16:07;;;;;;;11.43;6.20;;;10.90;99.90;;;;;;5060233;28;20429;-71
2023/10/27 10:18:35;;;;;;;11.07;5.70;;;11.00;99.90;;;;;;5050988;28;20708;-72
2023/10/27 10:21:01;;;;;;;12.57;5.80;;;11.00;99.90;;;;;;5043711;28;20049;-71
2023/10/27 10:23:42;;;;;;;11.65;6.43;;;11.00;99.90;;;;;;5049763;28;20044;-71
2023/10/27 10:26:07;;;;;;;11.02;6.13;;;11.10;99.90;;;;;;5055394;28;20067;-71
2023/10/27 10:28:34;;;;;;;12.80;6.43;;;11.20;99.90;;;;;;5053819;28;20652;-71
2023/10/27 10:31:17;;;;;;;11.65;6.43;;;11.20;99.90;;;;;;5044944;28;20045;-71
2023/10/27 10:33:45;;;;;;;11.85;6.30;;;11.20;99.90;;;;;;5053633;28;20049;-71
2023/10/27 10:36:24;;;;;;;12.70;6.50;;;11.20;99.90;;;;;;5052237;28;20520;-71
2023/10/27 10:38:51;;;;;;;11.48;6.05;;;11.20;99.90;;;;;;5049564;28;20107;-71
2023/10/27 10:41:18;;;;;;;13.82;7.20;;;11.20;99.90;;;;;;5053463;28;20045;-71
2023/10/27 10:43:44;;;;;;;14.23;6.40;;;11.20;99.90;;;;;;5053264;28;20040;-72
2023/10/27 10:46:12;;;;;;;12.00;6.82;;;11.20;99.90;;;;;;5055220;28;20521;-71
2023/10/27 10:48:46;;;;;;;12.93;7.03;;;11.20;99.90;;;;;;5047263;28;20055;-71
2023/10/27 10:51:29;;;;;;;12.48;6.88;;;11.20;99.90;;;;;;5054151;28;20032;-71
2023/10/27 10:53:55;;;;;;;13.68;7.38;;;11.30;99.90;;;;;;5054683;28;20055;-71
2023/10/27 10:56:22;;;;;;;13.05;7.32;;;11.30;99.90;;;;;;5047288;28;20359;-71
2023/10/27 10:58:48;;;;;;;15.07;7.60;;;11.30;99.90;;;;;;5053203;28;20539;-71
2023/10/27 11:01:23;;;;;;;16.35;7.47;;;11.30;99.90;;;;;;5030085;28;20048;-71
2023/10/27 11:03:54;;;;;;;17.45;7.80;;;11.30;99.90;;;;;;5052217;28;20047;-71
2023/10/27 11:06:21;;;;;;;13.80;7.53;;;11.30;99.90;;;;;;5054706;28;20175;-72
2023/10/27 11:08:47;;;;;;;13.93;7.40;;;11.30;99.90;;;;;;5054490;28;20039;-71
2023/10/27 11:11:19;;;;;;;15.07;7.10;;;11.30;99.90;;;;;;5046864;28;20041;-71
2023/10/27 11:13:53;;;;;;;12.57;7.32;;;11.20;99.90;;;;;;5045048;28;20301;-71
2023/10/27 11:16:23;;;;;;;13.70;7.95;;;11.20;99.90;;;;;;5045643;28;20397;-71
2023/10/27 11:18:59;;;;;;;15.52;7.60;;;11.20;99.90;;;;;;5047137;28;20520;-71
2023/10/27 11:21:27;;;;;;;13.00;6.82;;;11.20;99.90;;;;;;5045151;28;20382;-71
2023/10/27 11:23:53;;;;;;;13.82;7.13;;;11.20;99.90;;;;;;5050254;28;20051;-71
2023/10/27 11:26:26;;;;;;;13.27;7.20;;;11.20;99.90;;;;;;5036999;28;20041;-71
2023/10/27 11:28:54;;;;;;;13.00;7.40;;;11.20;99.90;;;;;;5053611;28;20044;-71
2023/10/27 11:31:23;;;;;;;13.75;7.13;;;11.20;99.90;;;;;;5047203;28;20048;-71
2023/10/27 11:34:03;;;;;;;13.77;7.47;;;11.20;99.90;;;;;;5053165;28;20036;-71
2023/10/27 11:36:35;;;;;;;16.58;7.65;;;11.20;99.90;;;;;;5056532;28;20500;-71
2023/10/27 11:39:15;;;;;;;15.93;7.90;;;11.20;99.90;;;;;;5044606;28;20106;-71
2023/10/27 11:41:48;;;;;;;15.48;7.57;;;11.20;99.90;;;;;;5052141;28;20133;-71
2023/10/27 11:44:14;;;;;;;12.95;6.75;;;11.20;99.90;;;;;;5052364;28;20092;-71
2023/10/27 11:46:47;;;;;;;15.35;7.75;;;11.10;99.90;;;;;;5044991;28;20151;-72
2023/10/27 11:49:14;;;;;;;18.15;8.48;;;11.20;99.90;;;;;;5047156;28;20168;-71
2023/10/27 11:51:42;;;;;;;;;;;11.10;99.90;;;;;;5050021;28;20101;-71
2023/10/27 11:54:08;;;;;;;16.55;8.77;;;11.20;99.90;;;;;;5054594;28;19944;-71
2023/10/27 11:56:33;;;;;;;16.57;8.53;;;11.10;99.90;;;;;;5045904;28;20037;-71
2023/10/27 11:58:59;;;;;;;15.00;7.77;;;11.10;99.90;;;;;;5054339;28;20304;-72
2023/10/27 12:01:24;;;;;;;15.97;8.50;;;11.10;99.90;;;;;;5046668;28;20045;-71
2023/10/27 12:03:50;;;;;;;19.03;8.60;;;11.10;99.90;;;;;;5057043;28;20040;-72
2023/10/27 12:06:16;;;;;;;18.63;9.00;;;11.10;99.90;;;;;;5052571;28;20389;-72
2023/10/27 12:08:41;;;;;;;15.47;8.37;;;11.10;99.90;;;;;;5048989;28;20043;-72
2023/10/27 12:11:07;;;;;;;18.83;9.00;;;11.10;99.90;;;;;;5056000;28;20376;-72
2023/10/27 12:13:33;;;;;;;19.47;9.73;;;11.10;99.90;;;;;;5049519;28;20076;-71
2023/10/27 12:15:58;;;;;;;16.52;8.32;;;11.10;99.90;;;;;;5049638;28;20313;-72
2023/10/27 12:18:24;;;;;;;17.60;8.63;;;11.10;99.90;;;;;;5063930;28;20043;-71
2023/10/27 12:20:50;;;;;;;21.33;9.20;;;11.10;99.90;;;;;;5050364;28;20041;-71
2023/10/27 12:23:18;;;;;;;15.15;8.20;;;11.10;99.90;;;;;;5054171;28;20100;-71
2023/10/27 12:25:43;;;;;;;17.67;8.90;;;11.10;99.90;;;;;;5050540;28;20045;-71
2023/10/27 12:28:10;;;;;;;15.75;7.82;;;11.10;99.90;;;;;;5054296;28;20596;-71
2023/10/27 12:30:36;;;;;;;14.27;7.88;;;11.10;99.90;;;;;;5055441;28;20064;-72
2023/10/27 12:33:05;;;;;;;15.88;8.25;;;11.10;99.90;;;;;;5050169;28;20052;-72
2023/10/27 12:35:31;;;;;;;14.77;7.40;;;11.20;99.90;;;;;;5057163;28;20072;-72
2023/10/27 12:37:57;;;;;;;14.77;7.20;;;11.10;99.90;;;;;;5049959;28;20036;-72
2023/10/27 12:40:24;;;;;;;16.15;8.27;;;11.10;99.90;;;;;;5051183;28;20041;-71
2023/10/27 12:42:51;;;;;;;16.45;8.77;;;11.10;99.90;;;;;;5056309;28;20127;-71
2023/10/27 12:45:17;;;;;;;15.52;7.32;;;11.10;99.90;;;;;;5061270;28;20408;-72